createdAt,value
2023-02-11T00:02:08.598Z,-10.26
2023-02-11T00:04:38.214Z,-10.30
2023-02-11T00:07:09.175Z,-10.37
2023-02-11T00:09:46.391Z,-10.44
2023-02-11T00:12:16.052Z,-10.54
2023-02-11T00:14:45.627Z,-10.61
2023-02-11T00:17:15.293Z,-10.58
2023-02-11T00:19:45.024Z,-10.48
2023-02-11T00:22:16.017Z,-10.41
2023-02-11T00:24:45.595Z,-10.41
2023-02-11T00:27:15.038Z,-10.51
2023-02-11T00:29:44.572Z,-10.63
2023-02-11T00:32:14.501Z,-10.66
2023-02-11T00:34:58.038Z,-10.62
2023-02-11T00:37:29.402Z,-10.58
2023-02-11T00:39:58.969Z,-10.63
2023-02-11T00:42:28.392Z,-10.70
2023-02-11T00:44:58.014Z,-10.68
2023-02-11T00:50:36.363Z,-10.73
2023-02-11T00:53:05.879Z,-10.71
2023-02-11T00:55:35.845Z,-10.70
2023-02-11T00:58:11.718Z,-10.65
2023-02-11T01:00:41.213Z,-10.59
2023-02-11T01:03:10.766Z,-10.58
2023-02-11T01:05:41.770Z,-10.56
2023-02-11T01:08:11.297Z,-10.58
2023-02-11T01:10:40.718Z,-10.71
2023-02-11T01:13:10.322Z,-10.72
2023-02-11T01:15:39.698Z,-10.72
2023-02-11T01:18:09.333Z,-10.72
2023-02-11T01:20:53.781Z,-10.71
2023-02-11T01:23:24.731Z,-10.72
2023-02-11T01:25:54.757Z,-10.65
2023-02-11T01:28:27.214Z,-10.69
2023-02-11T01:30:57.611Z,-10.74
2023-02-11T01:33:27.273Z,-10.73
2023-02-11T01:35:56.851Z,-10.71
2023-02-11T01:38:28.758Z,-10.71
2023-02-11T01:41:01.930Z,-10.70
2023-02-11T01:43:35.698Z,-10.67
2023-02-11T01:46:30.125Z,-10.70
2023-02-11T01:49:07.059Z,-10.75
2023-02-11T01:51:41.882Z,-10.79
2023-02-11T01:54:35.874Z,-10.78
2023-02-11T01:57:26.286Z,-10.77
2023-02-11T02:00:09.461Z,-10.82
2023-02-11T02:02:46.260Z,-10.85
2023-02-11T02:05:28.834Z,-10.85
2023-02-11T02:08:08.833Z,-10.85
2023-02-11T02:10:44.702Z,-10.83
2023-02-11T02:13:14.756Z,-10.81
2023-02-11T02:15:50.940Z,-10.85
2023-02-11T02:18:36.348Z,-10.85
2023-02-11T02:22:03.628Z,-10.83
2023-02-11T02:25:01.410Z,-10.86
2023-02-11T02:27:52.728Z,-10.76
2023-02-11T02:31:03.161Z,-10.67
2023-02-11T02:33:42.927Z,-10.73
2023-02-11T02:36:22.466Z,-10.77
2023-02-11T02:38:59.606Z,-10.80
2023-02-11T02:41:33.115Z,-10.84
2023-02-11T02:44:03.557Z,-10.82
2023-02-11T02:46:36.178Z,-10.88
2023-02-11T02:49:15.126Z,-10.96
2023-02-11T02:52:20.913Z,-10.94
2023-02-11T02:55:30.547Z,-10.92
2023-02-11T02:58:31.561Z,-10.88
2023-02-11T03:01:10.010Z,-10.90
2023-02-11T03:03:51.945Z,-10.90
2023-02-11T03:06:33.261Z,-10.85
2023-02-11T03:09:11.477Z,-10.83
2023-02-11T03:11:42.279Z,-10.90
2023-02-11T03:14:16.270Z,-10.98
2023-02-11T03:16:48.249Z,-10.98
2023-02-11T03:19:23.408Z,-11.05
2023-02-11T03:21:55.946Z,-11.08
2023-02-11T03:24:33.353Z,-11.06
2023-02-11T03:27:12.652Z,-11.05
2023-02-11T03:29:49.532Z,-11.08
2023-02-11T03:32:27.050Z,-11.01
2023-02-11T03:35:00.332Z,-10.96
2023-02-11T03:37:37.267Z,-10.95
2023-02-11T03:40:11.838Z,-11.06
2023-02-11T03:42:46.988Z,-11.09
2023-02-11T03:45:21.998Z,-11.05
2023-02-11T03:47:57.275Z,-11.08
2023-02-11T03:51:37.870Z,-11.17
2023-02-11T03:54:12.694Z,-11.10
2023-02-11T03:56:52.654Z,-11.14
2023-02-11T03:59:22.274Z,-11.16
2023-02-11T04:01:51.903Z,-11.18
2023-02-11T04:04:21.974Z,-11.15
2023-02-11T04:06:52.925Z,-11.18
2023-02-11T04:09:22.392Z,-11.23
2023-02-11T04:11:51.951Z,-11.27
2023-02-11T04:14:21.432Z,-11.28
2023-02-11T04:16:51.070Z,-11.31
2023-02-11T04:19:20.538Z,-11.21
2023-02-11T04:21:51.568Z,-11.19
2023-02-11T04:24:21.024Z,-11.18
2023-02-11T04:26:50.695Z,-11.19
2023-02-11T04:29:20.591Z,-11.23
2023-02-11T04:31:50.167Z,-11.19
2023-02-11T04:34:20.772Z,-11.24
2023-02-11T04:36:51.958Z,-11.31
2023-02-11T04:39:21.853Z,-11.31
2023-02-11T04:41:51.398Z,-11.31
2023-02-11T04:44:21.037Z,-11.34
2023-02-11T04:46:50.571Z,-11.31
2023-02-11T04:49:20.794Z,-11.27
2023-02-11T04:51:51.698Z,-11.24
2023-02-11T04:54:22.312Z,-11.32
2023-02-11T04:56:55.131Z,-11.23
2023-02-11T04:59:24.220Z,-11.26
2023-02-11T05:01:53.833Z,-11.35
2023-02-11T05:04:23.474Z,-11.44
2023-02-11T05:06:55.633Z,-11.45
2023-02-11T05:09:26.692Z,-11.44
2023-02-11T05:11:56.256Z,-11.46
2023-02-11T05:14:25.702Z,-11.53
2023-02-11T05:16:55.255Z,-11.54
2023-02-11T05:19:25.292Z,-11.51
2023-02-11T05:22:02.565Z,-11.60
2023-02-11T05:24:33.032Z,-11.55
2023-02-11T05:27:02.844Z,-11.51
2023-02-11T05:29:32.397Z,-11.52
2023-02-11T05:32:01.788Z,-11.55
2023-02-11T05:34:31.275Z,-11.50
2023-02-11T05:37:02.038Z,-11.41
2023-02-11T05:39:33.941Z,-11.41
2023-02-11T05:42:03.556Z,-11.44
2023-02-11T05:44:33.079Z,-11.44
2023-02-11T05:47:02.732Z,-11.37
2023-02-11T05:49:32.412Z,-11.33
2023-02-11T05:52:03.589Z,-11.36
2023-02-11T05:54:33.015Z,-11.29
2023-02-11T05:57:02.439Z,-11.22
2023-02-11T05:59:32.051Z,-11.22
2023-02-11T06:02:01.413Z,-11.19
2023-02-11T06:04:30.897Z,-11.12
2023-02-11T06:07:01.600Z,-10.94
2023-02-11T06:09:30.979Z,-10.70
2023-02-11T06:12:01.397Z,-10.49
2023-02-11T06:14:30.810Z,-10.32
2023-02-11T06:17:01.727Z,-10.15
2023-02-11T06:19:31.420Z,-9.94
2023-02-11T06:22:02.434Z,-9.74
2023-02-11T06:24:58.581Z,-9.59
2023-02-11T06:27:21.794Z,-9.41
2023-02-11T06:29:52.662Z,-9.23
2023-02-11T06:32:42.660Z,-9.07
2023-02-11T06:35:12.815Z,-8.88
2023-02-11T06:37:44.201Z,-8.70
2023-02-11T06:40:14.637Z,-8.53
2023-02-11T06:42:44.946Z,-8.37
2023-02-11T06:45:14.707Z,-8.23
2023-02-11T06:47:44.239Z,-8.10
2023-02-11T06:51:36.350Z,-7.84
2023-02-11T06:54:07.877Z,-7.66
2023-02-11T06:56:37.382Z,-7.50
2023-02-11T06:59:06.916Z,-7.39
2023-02-11T07:01:37.612Z,-7.28
2023-02-11T07:04:08.399Z,-7.10
2023-02-11T07:06:39.639Z,-6.92
2023-02-11T07:09:09.859Z,-6.80
2023-02-11T07:11:40.723Z,-6.63
2023-02-11T07:14:13.582Z,-6.48
2023-02-11T07:16:42.907Z,-6.30
2023-02-11T07:19:13.056Z,-6.10
2023-02-11T07:21:43.996Z,-5.92
2023-02-11T07:24:14.156Z,-5.72
2023-02-11T07:26:45.013Z,-5.46
2023-02-11T07:29:14.576Z,-5.21
2023-02-11T07:31:44.258Z,-5.02
2023-02-11T07:34:14.198Z,-4.82
2023-02-11T07:36:45.404Z,-4.57
2023-02-11T07:39:14.973Z,-4.30
2023-02-11T07:41:44.727Z,-4.04
2023-02-11T07:44:14.172Z,-3.85
2023-02-11T07:46:45.510Z,-3.64
2023-02-11T07:49:15.365Z,-3.39
2023-02-11T07:51:47.511Z,-3.12
2023-02-11T07:54:17.008Z,-2.83
2023-02-11T07:56:46.466Z,-2.51
2023-02-11T07:59:16.206Z,-2.21
2023-02-11T08:01:45.789Z,-1.91
2023-02-11T08:04:15.419Z,-1.66
2023-02-11T08:06:46.843Z,-1.44
2023-02-11T08:09:18.612Z,-1.27
2023-02-11T08:11:48.799Z,-0.99
2023-02-11T08:14:18.868Z,-0.70
2023-02-11T08:16:48.312Z,-0.39
2023-02-11T08:19:19.133Z,-0.14
2023-02-11T08:21:50.128Z,0.05
2023-02-11T08:24:19.611Z,0.27
2023-02-11T08:26:49.163Z,0.44
2023-02-11T08:29:19.940Z,0.58
2023-02-11T08:31:51.806Z,0.80
2023-02-11T08:34:22.231Z,1.08
2023-02-11T08:36:53.166Z,1.20
2023-02-11T08:39:24.648Z,1.24
2023-02-11T08:41:57.074Z,1.48
2023-02-11T08:44:26.762Z,1.66
2023-02-11T08:46:56.397Z,1.87
2023-02-11T08:49:25.851Z,2.00
2023-02-11T08:51:59.767Z,2.23
2023-02-11T08:54:29.285Z,2.42
2023-02-11T08:56:58.967Z,2.54
2023-02-11T08:59:28.696Z,2.56
2023-02-11T09:01:58.261Z,2.46
2023-02-11T09:04:27.906Z,2.57
2023-02-11T09:06:59.394Z,2.70
2023-02-11T09:09:28.992Z,2.94
2023-02-11T09:12:01.262Z,3.10
2023-02-11T09:14:31.066Z,3.10
2023-02-11T09:17:00.605Z,3.24
2023-02-11T09:19:30.111Z,3.42
2023-02-11T09:22:01.866Z,3.47
2023-02-11T09:24:31.432Z,3.50
2023-02-11T09:27:00.945Z,3.53
2023-02-11T09:29:31.071Z,3.59
2023-02-11T09:32:00.796Z,3.68
2023-02-11T09:34:30.484Z,3.71
2023-02-11T09:37:01.476Z,3.63
2023-02-11T09:39:31.087Z,3.76
2023-02-11T09:42:39.306Z,3.87
2023-02-11T09:45:17.914Z,3.88
2023-02-11T09:47:56.392Z,3.92
2023-02-11T09:51:44.119Z,4.01
2023-02-11T09:54:19.129Z,3.94
2023-02-11T09:56:48.666Z,3.83
2023-02-11T09:59:20.473Z,3.77
2023-02-11T10:01:55.067Z,3.69
2023-02-11T10:04:45.273Z,3.68
2023-02-11T10:07:26.694Z,3.62
2023-02-11T10:10:13.971Z,3.69
2023-02-11T10:13:02.267Z,3.63
2023-02-11T10:15:47.163Z,3.60
2023-02-11T10:18:48.812Z,3.28
2023-02-11T10:21:27.062Z,3.38
2023-02-11T10:24:03.674Z,3.47
2023-02-11T10:26:34.740Z,3.46
2023-02-11T10:29:28.572Z,3.46
2023-02-11T10:31:58.510Z,3.41
2023-02-11T10:34:28.512Z,3.37
2023-02-11T10:36:57.993Z,3.37
2023-02-11T10:39:32.190Z,3.32
2023-02-11T10:42:07.089Z,3.30
2023-02-11T10:44:40.505Z,3.26
2023-02-11T10:47:17.533Z,3.15
2023-02-11T10:49:48.434Z,3.19
2023-02-11T10:52:24.093Z,3.19
2023-02-11T10:55:16.351Z,3.22
2023-02-11T10:57:56.935Z,3.16
2023-02-11T11:00:38.252Z,3.07
2023-02-11T11:03:19.342Z,3.02
2023-02-11T11:05:52.272Z,2.99
2023-02-11T11:08:21.844Z,2.97
2023-02-11T11:11:09.233Z,2.92
2023-02-11T11:13:41.127Z,2.91
2023-02-11T11:16:26.585Z,2.91
2023-02-11T11:19:21.594Z,2.88
2023-02-11T11:21:53.417Z,2.81
2023-02-11T11:24:27.652Z,2.76
2023-02-11T11:27:02.333Z,2.75
2023-02-11T11:29:38.511Z,2.75
2023-02-11T11:32:15.422Z,2.71
2023-02-11T11:34:51.323Z,2.68
2023-02-11T11:37:27.938Z,2.70
2023-02-11T11:40:02.111Z,2.71
2023-02-11T11:42:36.040Z,2.74
2023-02-11T11:45:26.108Z,2.73
2023-02-11T11:47:59.977Z,2.78
2023-02-11T11:50:34.129Z,2.84
2023-02-11T11:53:09.155Z,2.96
2023-02-11T11:55:45.787Z,3.07
2023-02-11T11:58:20.856Z,3.14
2023-02-11T12:01:01.398Z,3.19
2023-02-11T12:04:25.636Z,3.08
2023-02-11T12:07:11.228Z,3.11
2023-02-11T12:10:00.286Z,3.21
2023-02-11T12:12:46.745Z,3.22
2023-02-11T12:15:34.622Z,3.21
2023-02-11T12:18:21.229Z,3.16
2023-02-11T12:21:13.020Z,3.08
2023-02-11T12:24:01.551Z,3.01
2023-02-11T12:26:38.212Z,2.95
2023-02-11T12:29:19.296Z,2.90
2023-02-11T12:32:11.983Z,2.89
2023-02-11T12:35:21.377Z,2.81
2023-02-11T12:38:22.374Z,2.69
2023-02-11T12:41:04.967Z,2.59
2023-02-11T12:43:39.542Z,2.51
2023-02-11T12:46:35.576Z,2.47
2023-02-11T12:51:53.878Z,2.46
2023-02-11T12:54:30.234Z,2.48
2023-02-11T12:57:05.156Z,2.49
2023-02-11T12:59:56.770Z,2.48
2023-02-11T13:02:38.658Z,2.44
2023-02-11T13:05:24.880Z,2.40
2023-02-11T13:08:00.469Z,2.35
2023-02-11T13:10:36.611Z,2.26
2023-02-11T13:13:17.894Z,2.25
2023-02-11T13:15:52.639Z,2.24
2023-02-11T13:18:46.168Z,2.20
2023-02-11T13:21:58.444Z,2.15
2023-02-11T13:24:41.674Z,2.05
2023-02-11T13:27:34.372Z,1.93
2023-02-11T13:30:30.400Z,1.83
2023-02-11T13:33:22.052Z,1.80
2023-02-11T13:36:25.942Z,1.74
2023-02-11T13:39:08.354Z,1.67
2023-02-11T13:41:46.139Z,1.58
2023-02-11T13:44:28.847Z,1.49
2023-02-11T13:47:05.014Z,1.42
2023-02-11T13:49:40.963Z,1.34
2023-02-11T13:52:26.099Z,1.29
2023-02-11T13:54:59.742Z,1.26
2023-02-11T13:57:36.212Z,1.19
2023-02-11T14:00:42.551Z,1.09
2023-02-11T14:03:56.512Z,1.00
2023-02-11T14:07:01.502Z,0.98
2023-02-11T14:09:41.332Z,0.95
2023-02-11T14:12:37.369Z,0.91
2023-02-11T14:15:33.148Z,0.79
2023-02-11T14:18:02.534Z,0.70
2023-02-11T14:20:45.811Z,0.67
2023-02-11T14:23:28.620Z,0.59
2023-02-11T14:26:23.016Z,0.52
2023-02-11T14:29:01.370Z,0.48
2023-02-11T14:31:40.599Z,0.38
2023-02-11T14:34:38.176Z,0.32
2023-02-11T14:37:21.194Z,0.30
2023-02-11T14:40:07.737Z,0.19
2023-02-11T14:42:39.690Z,0.14
2023-02-11T14:45:20.177Z,0.06
2023-02-11T14:47:55.871Z,-0.01
2023-02-11T14:50:29.990Z,-0.04
2023-02-11T14:53:03.974Z,-0.05
2023-02-11T14:55:37.332Z,-0.11
2023-02-11T14:58:16.759Z,-0.23
2023-02-11T15:01:01.024Z,-0.39
2023-02-11T15:03:35.224Z,-0.51
2023-02-11T15:06:09.679Z,-0.60
2023-02-11T15:08:42.188Z,-0.69
2023-02-11T15:11:17.437Z,-0.76
2023-02-11T15:13:49.959Z,-0.80
2023-02-11T15:16:24.281Z,-0.88
2023-02-11T15:18:57.637Z,-0.96
2023-02-11T15:21:31.115Z,-1.04
2023-02-11T15:24:03.763Z,-1.16
2023-02-11T15:26:33.595Z,-1.33
2023-02-11T15:29:03.161Z,-1.49
2023-02-11T15:31:35.249Z,-1.62
2023-02-11T15:34:10.671Z,-1.68
2023-02-11T15:36:41.113Z,-1.71
2023-02-11T15:39:31.778Z,-1.81
2023-02-11T15:42:25.140Z,-1.87
2023-02-11T15:45:10.392Z,-1.97
2023-02-11T15:47:42.612Z,-2.07
2023-02-11T15:51:40.159Z,-2.27
2023-02-11T15:54:20.434Z,-2.42
2023-02-11T15:56:55.722Z,-2.45
2023-02-11T15:59:31.231Z,-2.48
2023-02-11T16:02:08.828Z,-2.55
2023-02-11T16:04:39.451Z,-2.56
2023-02-11T16:07:45.125Z,-2.64
2023-02-11T16:10:29.711Z,-2.79
2023-02-11T16:13:20.997Z,-2.90
2023-02-11T16:15:54.529Z,-3.03
2023-02-11T16:18:38.769Z,-3.16
2023-02-11T16:21:18.169Z,-3.27
2023-02-11T16:23:56.489Z,-3.26
2023-02-11T16:26:32.873Z,-3.25
2023-02-11T16:29:13.243Z,-3.31
2023-02-11T16:31:45.394Z,-3.42
2023-02-11T16:34:20.793Z,-3.45
2023-02-11T16:36:51.341Z,-3.53
2023-02-11T16:39:24.853Z,-3.66
2023-02-11T16:41:54.751Z,-3.71
2023-02-11T16:44:24.776Z,-3.76
2023-02-11T16:46:54.970Z,-3.77
2023-02-11T16:49:27.494Z,-3.79
2023-02-11T16:52:01.474Z,-3.87
2023-02-11T16:54:32.794Z,-3.82
2023-02-11T16:57:02.660Z,-3.88
2023-02-11T16:59:32.163Z,-3.90
2023-02-11T17:02:01.914Z,-3.97
2023-02-11T17:04:34.593Z,-4.08
2023-02-11T17:07:04.276Z,-4.07
2023-02-11T17:09:35.422Z,-4.12
2023-02-11T17:12:05.040Z,-4.18
2023-02-11T17:14:34.669Z,-4.20
2023-02-11T17:17:04.331Z,-4.33
2023-02-11T17:19:34.029Z,-4.44
2023-02-11T17:22:03.563Z,-4.48
2023-02-11T17:24:34.939Z,-4.59
2023-02-11T17:27:04.567Z,-4.64
2023-02-11T17:29:34.092Z,-4.70
2023-02-11T17:32:03.885Z,-4.81
2023-02-11T17:34:33.769Z,-4.85
2023-02-11T17:37:09.286Z,-4.91
2023-02-11T17:39:41.457Z,-4.99
2023-02-11T17:42:12.030Z,-4.99
2023-02-11T17:44:41.899Z,-4.95
2023-02-11T17:47:11.427Z,-4.94
2023-02-11T17:49:41.325Z,-5.01
2023-02-11T17:52:11.330Z,-5.00
2023-02-11T17:54:42.206Z,-5.01
2023-02-11T17:57:13.796Z,-5.02
2023-02-11T17:59:43.266Z,-5.15
2023-02-11T18:02:14.421Z,-5.26
2023-02-11T18:04:44.124Z,-5.30
2023-02-11T18:07:13.779Z,-5.28
2023-02-11T18:09:45.164Z,-5.34
2023-02-11T18:12:14.524Z,-5.47
2023-02-11T18:14:44.527Z,-5.53
2023-02-11T18:17:14.108Z,-5.63
2023-02-11T18:19:43.581Z,-5.70
2023-02-11T18:22:13.067Z,-5.81
2023-02-11T18:24:44.286Z,-5.81
2023-02-11T18:27:14.654Z,-5.77
2023-02-11T18:29:44.134Z,-5.82
2023-02-11T18:32:14.066Z,-5.89
2023-02-11T18:34:43.973Z,-5.89
2023-02-11T18:37:14.550Z,-5.90
2023-02-11T18:39:45.732Z,-5.91
2023-02-11T18:42:15.339Z,-5.92
2023-02-11T18:44:45.014Z,-5.93
2023-02-11T18:47:14.374Z,-5.97
2023-02-11T18:51:36.794Z,-6.14
2023-02-11T18:54:06.493Z,-6.14
2023-02-11T18:56:36.381Z,-6.10
2023-02-11T18:59:06.505Z,-6.09
2023-02-11T19:01:36.558Z,-6.15
2023-02-11T19:04:07.525Z,-6.27
2023-02-11T19:06:39.754Z,-6.34
2023-02-11T19:09:11.678Z,-6.26
2023-02-11T19:11:49.882Z,-6.28
2023-02-11T19:14:23.471Z,-6.32
2023-02-11T19:16:55.690Z,-6.38
2023-02-11T19:19:28.243Z,-6.40
2023-02-11T19:22:00.912Z,-6.41
2023-02-11T19:24:31.620Z,-6.48
2023-02-11T19:27:03.916Z,-6.53
2023-02-11T19:29:35.444Z,-6.53
2023-02-11T19:32:06.684Z,-6.60
2023-02-11T19:34:41.476Z,-6.63
2023-02-11T19:37:13.690Z,-6.70
2023-02-11T19:39:44.033Z,-6.74
2023-02-11T19:42:14.111Z,-6.78
2023-02-11T19:44:43.741Z,-6.77
2023-02-11T19:47:14.153Z,-6.72
2023-02-11T19:49:43.652Z,-6.76
2023-02-11T19:52:14.534Z,-6.83
2023-02-11T19:54:43.891Z,-6.78
2023-02-11T19:57:13.309Z,-6.72
2023-02-11T19:59:43.071Z,-6.83
2023-02-11T20:02:14.317Z,-6.87
2023-02-11T20:04:43.748Z,-6.87
2023-02-11T20:07:14.838Z,-6.88
2023-02-11T20:09:44.594Z,-6.92
2023-02-11T20:12:14.029Z,-6.94
2023-02-11T20:14:43.472Z,-6.97
2023-02-11T20:17:13.031Z,-6.99
2023-02-11T20:19:42.447Z,-7.05
2023-02-11T20:22:13.490Z,-7.10
2023-02-11T20:24:43.101Z,-7.15
2023-02-11T20:27:12.916Z,-7.15
2023-02-11T20:29:42.715Z,-7.11
2023-02-11T20:32:13.739Z,-7.08
2023-02-11T20:34:43.249Z,-7.09
2023-02-11T20:37:14.042Z,-7.07
2023-02-11T20:39:45.485Z,-7.10
2023-02-11T20:42:15.270Z,-7.20
2023-02-11T20:44:44.816Z,-7.24
2023-02-11T20:47:15.714Z,-7.25
2023-02-11T20:49:45.277Z,-7.20
2023-02-11T20:52:16.351Z,-7.32
2023-02-11T20:54:45.843Z,-7.34
2023-02-11T20:57:15.452Z,-7.31
2023-02-11T20:59:45.008Z,-7.32
2023-02-11T21:02:14.917Z,-7.34
2023-02-11T21:04:44.566Z,-7.32
2023-02-11T21:07:17.291Z,-7.34
2023-02-11T21:09:46.754Z,-7.35
2023-02-11T21:12:16.259Z,-7.37
2023-02-11T21:14:46.014Z,-7.41
2023-02-11T21:17:15.650Z,-7.43
2023-02-11T21:19:45.563Z,-7.43
2023-02-11T21:22:16.650Z,-7.38
2023-02-11T21:24:46.105Z,-7.34
2023-02-11T21:27:16.296Z,-7.36
2023-02-11T21:29:54.290Z,-7.40
2023-02-11T21:32:24.257Z,-7.38
2023-02-11T21:34:54.184Z,-7.34
2023-02-11T21:37:26.640Z,-7.32
2023-02-11T21:39:56.040Z,-7.57
2023-02-11T21:42:25.659Z,-7.57
2023-02-11T21:44:56.601Z,-7.51
2023-02-11T21:47:26.176Z,-7.55
2023-02-11T21:51:38.487Z,-7.60
2023-02-11T21:54:08.096Z,-7.58
2023-02-11T21:56:37.622Z,-7.55
2023-02-11T21:59:07.018Z,-7.61
2023-02-11T22:01:37.137Z,-7.61
2023-02-11T22:04:06.918Z,-7.58
2023-02-11T22:06:37.918Z,-7.58
2023-02-11T22:09:11.067Z,-7.52
2023-02-11T22:11:40.878Z,-7.55
2023-02-11T22:14:10.562Z,-7.51
2023-02-11T22:16:40.275Z,-7.47
2023-02-11T22:19:10.582Z,-7.50
2023-02-11T22:21:43.439Z,-7.52
2023-02-11T22:24:12.771Z,-7.50
2023-02-11T22:26:42.480Z,-7.43
2023-02-11T22:29:12.620Z,-7.41
2023-02-11T22:31:42.244Z,-7.45
2023-02-11T22:34:12.053Z,-7.39
2023-02-11T22:36:45.691Z,-7.40
2023-02-11T22:39:17.966Z,-7.35
2023-02-11T22:41:49.253Z,-7.37
2023-02-11T22:44:20.301Z,-7.36
2023-02-11T22:46:49.968Z,-7.37
2023-02-11T22:49:21.917Z,-7.46
2023-02-11T22:51:52.989Z,-7.42
2023-02-11T22:54:23.023Z,-7.35
2023-02-11T22:56:53.807Z,-7.48
2023-02-11T22:59:23.836Z,-7.57
2023-02-11T23:01:53.405Z,-7.62
2023-02-11T23:04:22.944Z,-7.56
2023-02-11T23:06:54.042Z,-7.54
2023-02-11T23:09:23.728Z,-7.52
2023-02-11T23:11:54.576Z,-7.40
2023-02-11T23:14:24.597Z,-7.27
2023-02-11T23:16:54.203Z,-7.21
2023-02-11T23:19:24.252Z,-7.18
2023-02-11T23:21:55.371Z,-7.08
2023-02-11T23:24:24.951Z,-6.93
2023-02-11T23:26:54.607Z,-6.85
2023-02-11T23:29:24.053Z,-6.80
2023-02-11T23:31:54.408Z,-6.70
2023-02-11T23:34:25.770Z,-6.65
2023-02-11T23:36:59.456Z,-6.68
2023-02-11T23:39:28.999Z,-6.67
2023-02-11T23:41:59.753Z,-6.66
2023-02-11T23:44:29.754Z,-6.63
2023-02-11T23:46:59.163Z,-6.55
2023-02-11T23:49:28.787Z,-6.53
2023-02-11T23:51:59.787Z,-6.57
2023-02-11T23:54:29.368Z,-6.65
2023-02-11T23:56:59.047Z,-6.70
2023-02-11T23:59:28.655Z,-6.67
